Time;durP1;ratioP1;P1;durP2;ratioP2;P2;SDS_P1;SDS_P2;PMS_P1;PMS_P2;Temp;Humidity;BMP_temperature;BMP_pressure;BME280_temperature;BME280_humidity;BME280_pressure;Samples;Min_cycle;Max_cycle;Signal;HPM_P1;HPM_P2
2023/06/28 00:01:14;;;;;;;3.72;2.30;;;;;;;13.46;100.00;98393.81;2583989;28;20058;-85
2023/06/28 00:02:49;;;;;;;2.50;2.30;;;;;;;13.53;100.00;98396.13;2584810;28;20051;-85
2023/06/28 00:04:05;;;;;;;2.58;2.38;;;;;;;13.54;100.00;98396.97;2584580;28;20062;-85
2023/06/28 00:05:21;;;;;;;2.80;2.60;;;;;;;13.52;100.00;98388.28;2583129;28;20050;-85
2023/06/28 00:06:36;;;;;;;4.15;2.33;;;;;;;13.49;100.00;98391.03;2585468;28;20046;-86
2023/06/28 00:07:52;;;;;;;3.75;2.45;;;;;;;13.26;100.00;98393.66;2585121;28;20053;-85
2023/06/28 00:09:08;;;;;;;4.00;2.50;;;;;;;13.31;100.00;98396.09;2584448;28;20058;-86
2023/06/28 00:10:23;;;;;;;2.97;2.60;;;;;;;13.49;100.00;98391.91;2584213;28;20460;-85
2023/06/28 00:11:39;;;;;;;2.88;2.38;;;;;;;13.43;100.00;98394.75;2584188;28;20050;-85
2023/06/28 00:12:55;;;;;;;4.22;2.63;;;;;;;13.46;100.00;98388.53;2584849;28;20050;-86
2023/06/28 00:14:11;;;;;;;3.20;2.20;;;;;;;13.38;100.00;98388.81;2582991;28;20077;-85
2023/06/28 00:15:26;;;;;;;2.95;2.13;;;;;;;13.28;100.00;98385.72;2582729;28;20763;-86
2023/06/28 00:16:42;;;;;;;2.45;2.20;;;;;;;13.18;100.00;98389.63;2583909;28;20057;-85
2023/06/28 00:17:57;;;;;;;2.42;2.10;;;;;;;13.11;100.00;98389.00;2583371;28;20057;-85
2023/06/28 00:19:13;;;;;;;2.75;2.40;;;;;;;13.17;100.00;98395.78;2582768;28;20053;-85
2023/06/28 00:20:29;;;;;;;3.10;2.05;;;;;;;12.86;100.00;98397.81;2583895;28;20042;-85
2023/06/28 00:21:46;;;;;;;2.95;2.40;;;;;;;12.92;100.00;98399.38;2585869;28;20078;-85
2023/06/28 00:23:03;;;;;;;3.70;2.63;;;;;;;12.82;100.00;98399.72;2584521;28;20514;-85
2023/06/28 00:24:18;;;;;;;3.75;2.40;;;;;;;12.97;100.00;98395.66;2584721;28;20081;-85
2023/06/28 00:25:34;;;;;;;4.65;2.63;;;;;;;12.93;100.00;98401.06;2586236;28;20398;-85
2023/06/28 00:26:49;;;;;;;3.33;2.85;;;;;;;13.01;100.00;98401.66;2585451;28;20065;-85
2023/06/28 00:28:05;;;;;;;5.30;3.08;;;;;;;13.19;100.00;98401.84;2582473;28;20109;-85
2023/06/28 00:29:20;;;;;;;3.47;2.58;;;;;;;13.28;100.00;98404.13;2585451;28;20107;-86
2023/06/28 00:30:37;;;;;;;3.58;2.40;;;;;;;13.29;100.00;98403.19;2583155;28;20065;-85
2023/06/28 00:31:52;;;;;;;3.25;2.60;;;;;;;13.21;100.00;98400.88;2582701;28;20497;-85
2023/06/28 00:33:08;;;;;;;6.20;2.40;;;;;;;13.30;100.00;98391.75;2585340;28;20111;-85
2023/06/28 00:34:23;;;;;;;8.52;3.55;;;;;;;13.37;100.00;98395.84;2585326;28;20047;-85
2023/06/28 00:35:39;;;;;;;10.38;3.58;;;;;;;13.45;100.00;98392.94;2584260;28;20568;-85
2023/06/28 00:36:54;;;;;;;13.93;3.85;;;;;;;13.41;100.00;98389.56;2584362;28;20046;-85
2023/06/28 00:38:10;;;;;;;5.70;3.20;;;;;;;13.45;100.00;98392.94;2582488;28;20046;-85
2023/06/28 00:39:25;;;;;;;33.22;5.03;;;;;;;13.50;100.00;98392.75;2584616;28;20081;-85
2023/06/28 00:40:41;;;;;;;20.20;4.60;;;;;;;13.58;100.00;98393.31;2584090;28;20436;-85
2023/06/28 00:41:56;;;;;;;13.13;5.13;;;;;;;13.42;100.00;98391.28;2584743;28;20108;-85
2023/06/28 00:43:12;;;;;;;17.70;4.00;;;;;;;13.30;100.00;98393.53;2584074;28;20066;-85
2023/06/28 00:44:28;;;;;;;6.47;3.38;;;;;;;13.30;100.00;98396.16;2586085;28;20050;-85
2023/06/28 00:45:43;;;;;;;15.32;4.40;;;;;;;13.13;100.00;98403.81;2583651;28;20046;-85
2023/06/28 00:47:00;;;;;;;26.77;4.40;;;;;;;12.94;100.00;98402.78;2584577;28;20448;-85
2023/06/28 00:48:15;;;;;;;58.50;5.95;;;;;;;12.92;100.00;98408.13;2585778;28;20117;-85
2023/06/28 00:49:32;;;;;;;28.98;5.20;;;;;;;12.99;100.00;98404.31;2582675;28;20050;-85
2023/06/28 00:50:49;;;;;;;91.28;6.82;;;;;;;13.04;100.00;98400.66;2584014;28;20053;-86
2023/06/28 00:52:10;;;;;;;35.30;5.75;;;;;;;13.02;100.00;98407.75;2583723;28;20073;-85
2023/06/28 00:53:26;;;;;;;85.57;7.75;;;;;;;13.15;100.00;98406.34;2583034;28;20074;-85
2023/06/28 00:54:42;;;;;;;31.38;5.40;;;;;;;13.09;100.00;98407.44;2584910;28;20588;-84
2023/06/28 00:55:59;;;;;;;22.33;5.53;;;;;;;13.10;100.00;98409.16;2583713;28;20052;-84
2023/06/28 00:57:15;;;;;;;78.45;7.78;;;;;;;13.13;100.00;98409.06;2584009;28;20050;-85
2023/06/28 00:58:31;;;;;;;125.32;9.40;;;;;;;13.16;100.00;98405.44;2583620;28;20833;-85
2023/06/28 00:59:47;;;;;;;186.10;10.15;;;;;;;13.17;100.00;98408.94;2583753;28;20054;-85
2023/06/28 01:01:03;;;;;;;151.82;9.35;;;;;;;13.07;100.00;98408.44;2583413;28;20406;-85
2023/06/28 01:02:19;;;;;;;35.63;5.32;;;;;;;13.02;100.00;98411.25;2585530;28;20049;-85
2023/06/28 01:03:35;;;;;;;61.97;5.70;;;;;;;12.95;100.00;98409.75;2583557;28;20054;-85
2023/06/28 01:04:53;;;;;;;83.13;6.78;;;;;;;13.03;100.00;98412.97;2584844;28;20078;-85
2023/06/28 01:06:12;;;;;;;36.92;5.10;;;;;;;13.13;100.00;98419.56;2581633;28;20490;-84
2023/06/28 01:07:30;;;;;;;117.32;6.82;;;;;;;12.98;100.00;98414.88;2582903;28;20576;-86
2023/06/28 01:08:45;;;;;;;135.35;10.00;;;;;;;13.07;100.00;98418.97;2582534;28;20050;-85
2023/06/28 01:10:02;;;;;;;54.75;5.03;;;;;;;12.96;100.00;98408.84;2585280;28;20048;-85
2023/06/28 01:11:18;;;;;;;56.78;5.38;;;;;;;13.13;100.00;98409.06;2583842;28;20508;-85
2023/06/28 01:12:36;;;;;;;38.88;5.63;;;;;;;13.16;100.00;98412.47;2583404;28;20537;-85
2023/06/28 01:13:51;;;;;;;45.13;5.75;;;;;;;13.22;100.00;98406.97;2584859;28;20081;-85
2023/06/28 01:15:08;;;;;;;86.68;7.50;;;;;;;12.93;100.00;98415.09;2582501;28;20046;-85
2023/06/28 01:16:24;;;;;;;12.43;4.13;;;;;;;13.12;100.00;98409.94;2583098;28;20046;-85
2023/06/28 01:17:40;;;;;;;19.33;4.53;;;;;;;13.03;100.00;98409.47;2583481;28;20897;-85
2023/06/28 01:18:56;;;;;;;70.65;6.40;;;;;;;13.12;100.00;98412.56;2582411;28;20068;-85
2023/06/28 01:20:11;;;;;;;47.42;5.20;;;;;;;13.08;100.00;98416.25;2584323;28;20096;-86
2023/06/28 01:21:33;;;;;;;13.02;4.55;;;;;;;13.25;100.00;98410.34;2582303;28;20061;-87
2023/06/28 01:22:55;;;;;;;98.88;7.65;;;;;;;13.31;100.00;98411.88;2583081;28;20082;-86
2023/06/28 01:24:11;;;;;;;16.60;4.80;;;;;;;13.18;100.00;98415.91;2585372;28;20049;-85
2023/06/28 01:25:27;;;;;;;17.02;4.22;;;;;;;13.30;100.00;98414.56;2584016;28;20056;-86
2023/06/28 01:26:43;;;;;;;92.97;7.57;;;;;;;13.24;100.00;98416.53;2582590;28;20060;-86
2023/06/28 01:27:59;;;;;;;102.30;7.63;;;;;;;13.33;100.00;98412.66;2583643;28;20061;-84
2023/06/28 01:29:15;;;;;;;6.90;3.92;;;;;;;13.27;100.00;98408.50;2582035;28;20056;-86
2023/06/28 01:30:37;;;;;;;21.13;4.72;;;;;;;13.48;100.00;98407.75;2582666;28;20050;-86
2023/06/28 01:31:54;;;;;;;51.97;6.07;;;;;;;13.38;100.00;98409.84;2582803;28;20114;-86
2023/06/28 01:33:10;;;;;;;8.20;4.18;;;;;;;13.30;100.00;98401.41;2582942;28;20060;-85
2023/06/28 01:34:26;;;;;;;5.82;3.97;;;;;;;12.95;100.00;98405.38;2582365;28;20050;-85
2023/06/28 01:35:42;;;;;;;8.07;4.05;;;;;;;12.89;100.00;98405.59;2585054;28;20050;-85
2023/06/28 01:37:00;;;;;;;8.02;4.38;;;;;;;12.87;100.00;98409.22;2583368;28;20394;-85
2023/06/28 01:38:16;;;;;;;11.38;4.85;;;;;;;12.83;100.00;98405.84;2583175;28;20499;-85
2023/06/28 01:39:33;;;;;;;9.98;4.43;;;;;;;12.92;100.00;98409.88;2584078;28;20092;-85
2023/06/28 01:40:52;;;;;;;25.38;5.38;;;;;;;13.26;100.00;98414.69;2583300;28;20054;-85
2023/06/28 01:42:08;;;;;;;7.72;4.65;;;;;;;13.40;100.00;98406.22;2583162;28;20080;-86
2023/06/28 01:43:24;;;;;;;7.32;4.15;;;;;;;13.17;100.00;98417.66;2582942;28;20054;-86
2023/06/28 01:44:40;;;;;;;8.90;4.40;;;;;;;13.02;100.00;98416.50;2583488;28;20548;-85
2023/06/28 01:45:56;;;;;;;8.27;4.88;;;;;;;13.09;100.00;98417.97;2583518;28;20058;-85
2023/06/28 01:47:11;;;;;;;70.57;5.90;;;;;;;13.26;100.00;98413.81;2583560;28;20050;-85
2023/06/28 01:48:27;;;;;;;11.93;4.55;;;;;;;13.11;100.00;98415.28;2582789;28;20540;-85
2023/06/28 01:49:43;;;;;;;9.40;4.30;;;;;;;13.27;100.00;98415.56;2585048;28;20453;-85
2023/06/28 01:50:59;;;;;;;5.15;4.05;;;;;;;13.47;100.00;98416.56;2583999;28;20073;-85
2023/06/28 01:52:15;;;;;;;6.15;3.67;;;;;;;13.51;100.00;98412.88;2583768;28;20056;-85
2023/06/28 01:53:31;;;;;;;4.53;3.15;;;;;;;12.83;100.00;98408.47;2582760;28;20602;-84
2023/06/28 01:54:46;;;;;;;8.57;3.65;;;;;;;12.67;100.00;98414.28;2582696;28;20354;-85
2023/06/28 01:56:02;;;;;;;4.05;3.25;;;;;;;12.55;100.00;98418.22;2583218;28;20062;-86
2023/06/28 01:57:17;;;;;;;6.35;3.78;;;;;;;12.74;100.00;98409.66;2584113;28;20066;-85
2023/06/28 01:58:33;;;;;;;5.55;3.97;;;;;;;12.54;100.00;98413.03;2583688;28;20542;-84
2023/06/28 01:59:48;;;;;;;12.70;3.95;;;;;;;12.73;100.00;98402.69;2581883;28;20457;-84
2023/06/28 02:01:04;;;;;;;4.95;4.00;;;;;;;12.61;100.00;98409.25;2584766;28;20486;-84
2023/06/28 02:02:19;;;;;;;3.75;3.13;;;;;;;12.61;100.00;98409.25;2583239;28;20543;-86
2023/06/28 02:03:35;;;;;;;4.90;3.72;;;;;;;12.63;100.00;98409.19;2583576;28;20137;-86
2023/06/28 02:04:51;;;;;;;5.38;3.70;;;;;;;12.79;100.00;98405.09;2583772;28;20073;-85
2023/06/28 02:06:08;;;;;;;4.32;3.70;;;;;;;12.84;100.00;98403.13;2584919;28;20085;-86
2023/06/28 02:07:23;;;;;;;4.75;3.50;;;;;;;12.89;100.00;98402.97;2582507;28;20054;-85
2023/06/28 02:08:39;;;;;;;4.38;3.60;;;;;;;12.99;100.00;98399.06;2583482;28;20058;-85
2023/06/28 02:09:55;;;;;;;5.60;3.38;;;;;;;13.01;100.00;98401.66;2582562;28;20057;-85
2023/06/28 02:11:10;;;;;;;3.70;3.38;;;;;;;12.86;100.00;98408.34;2583041;28;20400;-85
2023/06/28 02:12:26;;;;;;;4.63;3.47;;;;;;;12.63;100.00;98398.69;2583751;28;20082;-85
2023/06/28 02:13:42;;;;;;;4.15;3.15;;;;;;;12.65;100.00;98403.00;2583546;28;20410;-85
2023/06/28 02:14:57;;;;;;;3.92;2.90;;;;;;;12.88;100.00;98405.66;2581894;28;20351;-85
2023/06/28 02:16:13;;;;;;;4.55;3.25;;;;;;;13.11;100.00;98410.03;2582153;28;20502;-85
2023/06/28 02:17:31;;;;;;;3.88;3.20;;;;;;;12.99;100.00;98411.34;2582163;28;20054;-85
2023/06/28 02:18:47;;;;;;;3.50;3.15;;;;;;;13.12;100.00;98404.69;2585004;28;20451;-84
2023/06/28 02:20:04;;;;;;;3.33;3.03;;;;;;;13.16;100.00;98401.97;2581688;28;20050;-85
2023/06/28 02:21:19;;;;;;;4.82;3.20;;;;;;;13.10;100.00;98409.16;2582254;28;20046;-85
2023/06/28 02:22:35;;;;;;;3.97;3.30;;;;;;;12.92;100.00;98407.25;2584014;28;20065;-85
2023/06/28 02:23:51;;;;;;;3.83;3.22;;;;;;;13.06;100.00;98396.19;2581626;28;20054;-85
2023/06/28 02:25:07;;;;;;;3.97;3.30;;;;;;;13.09;100.00;98398.72;2582225;28;20423;-85
2023/06/28 02:26:23;;;;;;;3.60;2.83;;;;;;;13.11;100.00;98391.63;2583901;28;20046;-85
2023/06/28 02:27:39;;;;;;;3.95;3.10;;;;;;;13.04;100.00;98395.41;2583634;28;20057;-85
2023/06/28 02:28:54;;;;;;;5.25;3.03;;;;;;;12.84;100.00;98392.63;2583337;28;20053;-85
2023/06/28 02:30:10;;;;;;;3.63;2.80;;;;;;;12.81;100.00;98395.38;2585018;28;20050;-85
2023/06/28 02:31:25;;;;;;;3.63;2.88;;;;;;;12.62;100.00;98386.47;2582819;28;20115;-86
2023/06/28 02:32:43;;;;;;;3.17;2.70;;;;;;;12.68;100.00;98387.09;2583298;28;20095;-85
2023/06/28 02:33:58;;;;;;;3.10;2.53;;;;;;;12.52;100.00;98383.34;2583991;28;20050;-85
2023/06/28 02:35:14;;;;;;;3.33;2.80;;;;;;;12.44;100.00;98383.63;2583045;28;20050;-85
2023/06/28 02:36:30;;;;;;;3.45;2.55;;;;;;;12.48;100.00;98390.47;2582519;28;20679;-85
2023/06/28 02:37:45;;;;;;;5.30;3.53;;;;;;;12.62;100.00;98389.94;2582986;28;20302;-86
2023/06/28 02:39:01;;;;;;;3.90;2.95;;;;;;;12.42;100.00;98390.69;2583363;28;20046;-85
2023/06/28 02:40:20;;;;;;;3.88;2.70;;;;;;;12.46;100.00;98400.19;2583280;28;20061;-86
2023/06/28 02:41:36;;;;;;;5.63;3.00;;;;;;;12.53;100.00;98401.66;2581633;28;20060;-86
2023/06/28 02:42:51;;;;;;;3.13;2.80;;;;;;;12.47;100.00;98398.41;2581572;28;20061;-85
2023/06/28 02:44:07;;;;;;;2.85;2.50;;;;;;;12.46;100.00;98405.44;2581748;28;20568;-85
2023/06/28 02:45:22;;;;;;;3.58;2.45;;;;;;;12.46;100.00;98400.19;2584535;28;20552;-85
2023/06/28 02:46:38;;;;;;;2.90;2.42;;;;;;;12.48;100.00;98407.97;2581810;28;20056;-85
2023/06/28 02:47:54;;;;;;;3.63;2.33;;;;;;;12.50;100.00;98403.53;2583471;28;20549;-86
2023/06/28 02:49:09;;;;;;;3.22;2.80;;;;;;;12.36;100.00;98407.53;2584558;28;20050;-85
2023/06/28 02:50:25;;;;;;;3.65;2.70;;;;;;;12.25;100.00;98409.69;2583608;28;20050;-84
2023/06/28 02:51:40;;;;;;;4.07;2.88;;;;;;;12.21;100.00;98408.06;2582328;28;20050;-84
2023/06/28 02:52:56;;;;;;;2.97;2.65;;;;;;;12.56;100.00;98408.56;2581770;28;20541;-85
2023/06/28 02:54:12;;;;;;;3.15;2.85;;;;;;;12.60;100.00;98409.31;2583467;28;20056;-85
2023/06/28 02:55:27;;;;;;;4.22;2.90;;;;;;;12.65;100.00;98415.25;2583727;28;20504;-86
2023/06/28 02:56:42;;;;;;;4.45;3.35;;;;;;;12.65;100.00;98413.50;2583472;28;20046;-85
2023/06/28 02:57:58;;;;;;;3.33;2.90;;;;;;;12.68;100.00;98416.00;2582129;28;20085;-85
2023/06/28 02:59:14;;;;;;;4.35;2.90;;;;;;;12.70;100.00;98419.41;2584668;28;20046;-85
2023/06/28 03:00:29;;;;;;;3.30;3.00;;;;;;;12.69;100.00;98420.34;2582792;28;20050;-85
2023/06/28 03:01:45;;;;;;;3.25;2.60;;;;;;;12.69;100.00;98422.97;2583489;28;20099;-85
2023/06/28 03:03:03;;;;;;;3.72;2.78;;;;;;;12.58;100.00;98425.13;2583309;28;20058;-86
2023/06/28 03:04:19;;;;;;;4.32;3.20;;;;;;;12.56;100.00;98417.28;2582101;28;20059;-86
2023/06/28 03:05:34;;;;;;;4.15;3.10;;;;;;;12.49;100.00;98428.06;2584457;28;20510;-85
2023/06/28 03:06:50;;;;;;;4.38;3.20;;;;;;;12.47;100.00;98420.28;2581461;28;20557;-85
2023/06/28 03:08:06;;;;;;;3.95;3.28;;;;;;;12.53;100.00;98422.66;2581696;28;20502;-85
2023/06/28 03:09:22;;;;;;;3.97;3.05;;;;;;;12.53;100.00;98422.66;2582019;28;20423;-85
2023/06/28 03:10:37;;;;;;;3.88;3.20;;;;;;;12.46;100.00;98415.06;2581871;28;20057;-85
2023/06/28 03:11:53;;;;;;;4.20;3.05;;;;;;;12.57;100.00;98426.03;2582597;28;20050;-85
2023/06/28 03:13:09;;;;;;;4.18;3.33;;;;;;;12.54;100.00;98421.75;2584129;28;20046;-85
2023/06/28 03:14:24;;;;;;;5.65;3.17;;;;;;;12.58;100.00;98422.50;2584909;28;20066;-85
2023/06/28 03:15:39;;;;;;;5.25;3.33;;;;;;;12.50;100.00;98422.78;2581119;28;20064;-85
2023/06/28 03:16:55;;;;;;;5.97;3.67;;;;;;;12.52;100.00;98422.75;2582760;28;20105;-84
2023/06/28 03:18:11;;;;;;;3.13;2.80;;;;;;;12.61;100.00;98427.63;2582188;28;20096;-85
2023/06/28 03:19:26;;;;;;;4.78;3.63;;;;;;;12.49;100.00;98430.69;2581683;28;20054;-84
2023/06/28 03:20:42;;;;;;;11.43;4.00;;;;;;;12.64;100.00;98429.31;2583331;28;20077;-85
2023/06/28 03:21:58;;;;;;;5.72;4.05;;;;;;;12.56;100.00;98429.59;2582273;28;20050;-85
2023/06/28 03:23:13;;;;;;;9.13;4.32;;;;;;;12.52;100.00;98428.81;2582440;28;20133;-85
2023/06/28 03:24:29;;;;;;;9.43;4.40;;;;;;;12.51;100.00;98431.53;2584237;28;20104;-84
2023/06/28 03:25:44;;;;;;;24.52;5.10;;;;;;;12.48;100.00;98436.88;2581300;28;20097;-85
2023/06/28 03:27:00;;;;;;;45.40;7.03;;;;;;;12.42;100.00;98430.06;2582467;28;20074;-86
2023/06/28 03:28:16;;;;;;;153.23;9.70;;;;;;;12.35;100.00;98431.22;2584623;28;20132;-85
2023/06/28 03:29:31;;;;;;;100.50;7.03;;;;;;;12.42;100.00;98432.69;2581815;28;20050;-85
2023/06/28 03:30:47;;;;;;;239.10;14.00;;;;;;;12.33;100.00;98436.50;2581035;28;20362;-85
2023/06/28 03:32:03;;;;;;;81.22;8.45;;;;;;;12.31;100.00;98438.31;2583708;28;20056;-85
2023/06/28 03:33:19;;;;;;;358.05;16.08;;;;;;;12.28;100.00;98434.03;2582428;28;20073;-86
2023/06/28 03:34:34;;;;;;;191.02;10.30;;;;;;;12.32;100.00;98431.31;2583467;28;20049;-85
2023/06/28 03:35:49;;;;;;;212.43;11.48;;;;;;;12.39;100.00;98435.44;2584287;28;20042;-85
2023/06/28 03:37:07;;;;;;;39.85;5.72;;;;;;;12.46;100.00;98430.81;2581775;28;20058;-85
2023/06/28 03:38:22;;;;;;;122.78;9.13;;;;;;;12.57;100.00;98429.53;2582458;28;20607;-85
2023/06/28 03:39:37;;;;;;;37.10;5.18;;;;;;;12.60;100.00;98422.44;2583772;28;20050;-85
2023/06/28 03:40:53;;;;;;;7.65;4.57;;;;;;;12.47;100.00;98425.53;2584732;28;20058;-85
2023/06/28 03:42:09;;;;;;;5.90;3.85;;;;;;;12.55;100.00;98420.00;2583914;28;20399;-85
2023/06/28 03:43:24;;;;;;;4.22;3.80;;;;;;;12.56;100.00;98417.28;2586167;28;20046;-85
2023/06/28 03:44:40;;;;;;;3.75;3.20;;;;;;;12.47;100.00;98422.03;2585538;28;20107;-85
2023/06/28 03:45:55;;;;;;;3.78;3.33;;;;;;;12.46;100.00;98423.81;2584943;28;20066;-85
2023/06/28 03:47:11;;;;;;;6.60;3.60;;;;;;;12.35;100.00;98428.59;2586177;28;20544;-85
2023/06/28 03:48:26;;;;;;;4.47;3.47;;;;;;;12.37;100.00;98430.25;2586223;28;20062;-86
2023/06/28 03:49:42;;;;;;;25.02;4.18;;;;;;;12.51;100.00;98431.53;2583745;28;20072;-85
2023/06/28 03:50:58;;;;;;;8.07;4.50;;;;;;;12.48;100.00;98424.59;2582571;28;20116;-85
2023/06/28 03:52:14;;;;;;;17.67;4.40;;;;;;;12.43;100.00;98431.78;2583787;28;20057;-85
2023/06/28 03:53:29;;;;;;;6.15;4.30;;;;;;;12.41;100.00;98433.59;2583151;28;20049;-85
2023/06/28 03:54:45;;;;;;;4.20;3.33;;;;;;;12.17;100.00;98428.31;2585734;28;20583;-85
2023/06/28 03:56:00;;;;;;;4.65;3.40;;;;;;;12.17;100.00;98433.56;2585786;28;20058;-85
2023/06/28 03:57:16;;;;;;;4.53;3.63;;;;;;;12.26;100.00;98429.78;2585223;28;20045;-85
2023/06/28 03:58:31;;;;;;;3.88;3.38;;;;;;;12.39;100.00;98432.81;2586422;28;20423;-86
2023/06/28 03:59:47;;;;;;;6.28;3.50;;;;;;;12.42;100.00;98435.31;2584599;28;20062;-85
2023/06/28 04:01:03;;;;;;;5.25;3.83;;;;;;;12.41;100.00;98430.97;2584504;28;20046;-85
2023/06/28 04:02:20;;;;;;;4.30;3.70;;;;;;;12.35;100.00;98433.84;2583572;28;20050;-85
2023/06/28 04:03:35;;;;;;;4.13;3.72;;;;;;;12.36;100.00;98433.78;2582231;28;20054;-86
2023/06/28 04:04:51;;;;;;;3.88;3.47;;;;;;;12.36;100.00;98440.78;2582628;28;20054;-85
2023/06/28 04:06:06;;;;;;;4.15;3.10;;;;;;;12.35;100.00;98445.19;2582175;28;20621;-85
2023/06/28 04:07:24;;;;;;;4.38;3.60;;;;;;;12.28;100.00;98438.44;2583471;28;20042;-86
2023/06/28 04:08:39;;;;;;;5.63;3.58;;;;;;;12.37;100.00;98442.50;2583618;28;20046;-84
2023/06/28 04:09:55;;;;;;;5.13;3.40;;;;;;;12.42;100.00;98438.81;2584175;28;20410;-85
2023/06/28 04:11:11;;;;;;;5.50;3.50;;;;;;;12.47;100.00;98440.41;2584075;28;20046;-84
2023/06/28 04:12:26;;;;;;;4.63;3.80;;;;;;;12.37;100.00;98438.13;2585464;28;20953;-84
2023/06/28 04:13:42;;;;;;;5.40;3.72;;;;;;;12.47;100.00;98433.41;2585490;28;20778;-84
2023/06/28 04:14:58;;;;;;;6.47;3.80;;;;;;;12.62;100.00;98433.75;2586187;28;20065;-85
2023/06/28 04:16:13;;;;;;;5.55;4.10;;;;;;;12.60;100.00;98435.59;2583534;28;20057;-84
2023/06/28 04:17:29;;;;;;;6.13;3.90;;;;;;;12.59;100.00;98434.72;2584236;28;20050;-86
2023/06/28 04:18:44;;;;;;;5.88;4.10;;;;;;;12.71;100.00;98436.03;2585081;28;20081;-85
2023/06/28 04:20:00;;;;;;;5.53;3.75;;;;;;;12.70;100.00;98437.81;2585614;28;20412;-85
2023/06/28 04:21:15;;;;;;;5.00;3.97;;;;;;;12.75;100.00;98435.03;2584564;28;20055;-85
2023/06/28 04:22:31;;;;;;;6.30;4.13;;;;;;;12.72;100.00;98440.41;2582745;28;20493;-85
2023/06/28 04:23:47;;;;;;;5.28;4.40;;;;;;;12.51;100.00;98442.88;2582413;28;20095;-85
2023/06/28 04:25:03;;;;;;;5.53;3.95;;;;;;;12.51;100.00;98439.41;2582394;28;20058;-85
2023/06/28 04:26:19;;;;;;;6.72;4.45;;;;;;;12.42;100.00;98443.19;2581577;28;20045;-85
2023/06/28 04:27:35;;;;;;;5.30;4.15;;;;;;;12.33;100.00;98440.91;2582925;28;20055;-85
2023/06/28 04:28:51;;;;;;;7.18;4.35;;;;;;;12.37;100.00;98443.38;2582716;28;20685;-84
2023/06/28 04:30:07;;;;;;;7.40;4.95;;;;;;;12.40;100.00;98445.03;2583552;28;20630;-84
2023/06/28 04:31:24;;;;;;;6.32;4.47;;;;;;;12.40;100.00;98445.88;2583305;28;20125;-84
2023/06/28 04:32:39;;;;;;;5.47;4.57;;;;;;;12.37;100.00;98445.13;2584341;28;20050;-83
2023/06/28 04:33:55;;;;;;;5.07;4.57;;;;;;;12.52;100.00;98454.25;2582805;28;20053;-82
2023/06/28 04:35:13;;;;;;;6.07;4.75;;;;;;;12.65;100.00;98457.28;2583670;28;20058;-84
2023/06/28 04:36:29;;;;;;;5.00;4.50;;;;;;;12.71;100.00;98454.41;2583736;28;20058;-84
2023/06/28 04:37:47;;;;;;;5.38;4.35;;;;;;;12.66;100.00;98465.13;2585186;28;20046;-84
2023/06/28 04:39:03;;;;;;;6.40;4.00;;;;;;;12.63;100.00;98462.56;2584418;28;20046;-85
2023/06/28 04:40:18;;;;;;;4.20;3.80;;;;;;;12.73;100.00;98457.88;2584666;28;20057;-83
2023/06/28 04:41:34;;;;;;;5.28;4.28;;;;;;;12.83;100.00;98463.63;2583894;28;20132;-83
2023/06/28 04:42:50;;;;;;;6.03;4.05;;;;;;;12.82;100.00;98459.28;2583236;28;20048;-83
2023/06/28 04:44:09;;;;;;;4.35;3.53;;;;;;;12.91;100.00;98464.19;2588070;28;20054;-83
2023/06/28 04:45:36;;;;;;;5.13;3.75;;;;;;;12.95;100.00;98468.44;2584570;28;20046;-83
2023/06/28 04:46:52;;;;;;;4.13;3.13;;;;;;;13.18;100.00;98458.81;2583354;28;20070;-83
2023/06/28 04:48:07;;;;;;;4.82;3.55;;;;;;;13.22;100.00;98467.44;2583198;28;20077;-83
2023/06/28 04:49:23;;;;;;;4.32;3.90;;;;;;;13.22;100.00;98459.56;2582892;28;20054;-83
2023/06/28 04:50:38;;;;;;;5.13;3.92;;;;;;;13.32;100.00;98460.03;2582314;28;20410;-83
2023/06/28 04:51:56;;;;;;;4.85;4.00;;;;;;;13.31;100.00;98464.47;2580113;28;20046;-82
2023/06/28 04:53:12;;;;;;;4.50;3.85;;;;;;;13.21;100.00;98463.09;2582350;28;20050;-84
2023/06/28 04:54:27;;;;;;;4.65;3.50;;;;;;;13.14;100.00;98463.34;2582179;28;20066;-83
2023/06/28 04:55:43;;;;;;;6.00;4.05;;;;;;;13.21;100.00;98463.09;2583390;28;20053;-82
2023/06/28 04:57:00;;;;;;;6.47;4.03;;;;;;;13.28;100.00;98462.81;2581621;28;20370;-83
2023/06/28 04:58:15;;;;;;;7.68;4.38;;;;;;;13.36;100.00;98457.25;2582551;28;20043;-83
2023/06/28 04:59:31;;;;;;;4.78;3.78;;;;;;;13.51;100.00;98465.47;2582453;28;20045;-82
2023/06/28 05:00:46;;;;;;;5.20;3.88;;;;;;;13.48;100.00;98457.72;2584255;28;20138;-82
2023/06/28 05:02:05;;;;;;;4.82;3.83;;;;;;;13.37;100.00;98461.59;2581985;28;20055;-83
2023/06/28 05:03:26;;;;;;;5.85;4.35;;;;;;;13.52;100.00;98465.44;2581905;28;20077;-82
2023/06/28 05:04:42;;;;;;;4.93;4.40;;;;;;;13.57;100.00;98467.88;2582913;28;20048;-83
2023/06/28 05:05:57;;;;;;;4.95;4.32;;;;;;;13.46;100.00;98462.19;2582538;28;20501;-83
2023/06/28 05:07:13;;;;;;;6.68;4.47;;;;;;;13.49;100.00;98462.94;2582531;28;20109;-83
2023/06/28 05:08:29;;;;;;;7.63;4.80;;;;;;;13.65;100.00;98463.16;2582814;28;20042;-83
2023/06/28 05:09:44;;;;;;;7.85;4.80;;;;;;;13.69;100.00;98464.75;2584737;28;20076;-83
2023/06/28 05:11:01;;;;;;;5.70;4.38;;;;;;;13.72;100.00;98458.50;2583447;28;20100;-83
2023/06/28 05:12:17;;;;;;;7.07;4.88;;;;;;;13.79;100.00;98453.84;2582744;28;20171;-81
2023/06/28 05:13:32;;;;;;;5.80;4.70;;;;;;;13.84;100.00;98457.16;2583565;28;20045;-82
2023/06/28 05:14:48;;;;;;;5.45;4.43;;;;;;;13.87;100.00;98450.88;2583065;28;20431;-82
2023/06/28 05:16:04;;;;;;;6.75;4.30;;;;;;;13.90;100.00;98456.03;2582842;28;20042;-81
2023/06/28 05:17:19;;;;;;;6.55;4.32;;;;;;;13.97;100.00;98447.84;2584175;28;20053;-81
2023/06/28 05:18:35;;;;;;;6.15;4.60;;;;;;;14.09;100.00;98448.22;2584059;28;20501;-82
2023/06/28 05:19:50;;;;;;;7.82;4.40;;;;;;;13.85;100.00;98443.06;2583620;28;20057;-81
2023/06/28 05:21:06;;;;;;;5.20;4.20;;;;;;;13.89;100.00;98451.69;2584287;28;20050;-82
2023/06/28 05:22:22;;;;;;;6.95;3.95;;;;;;;14.04;100.00;98452.81;2583278;28;20701;-82
2023/06/28 05:23:37;;;;;;;6.28;4.13;;;;;;;14.13;100.00;98452.44;2585102;28;20115;-82
2023/06/28 05:24:53;;;;;;;6.22;4.30;;;;;;;14.30;100.00;98448.22;2582953;28;20637;-81
2023/06/28 05:26:08;;;;;;;7.70;4.30;;;;;;;14.11;100.00;98447.25;2583629;28;20046;-82
2023/06/28 05:27:24;;;;;;;6.68;3.90;;;;;;;14.01;100.00;98450.31;2585368;28;20346;-83
2023/06/28 05:28:39;;;;;;;5.50;4.28;;;;;;;13.97;100.00;98449.59;2584983;28;20058;-82
2023/06/28 05:29:55;;;;;;;5.00;4.10;;;;;;;14.04;100.00;98452.81;2583129;28;20099;-82
2023/06/28 05:31:12;;;;;;;4.00;3.50;;;;;;;14.08;100.00;98451.78;2583396;28;20064;-82
2023/06/28 05:32:28;;;;;;;6.72;3.83;;;;;;;14.18;100.00;98455.72;2584228;28;20060;-83
2023/06/28 05:33:44;;;;;;;6.78;4.50;;;;;;;14.35;100.00;98449.75;2582023;28;20046;-82
2023/06/28 05:35:02;;;;;;;6.57;3.80;;;;;;;14.24;100.00;98450.19;2584591;28;20757;-83
2023/06/28 05:36:22;;;;;;;4.47;3.95;;;;;;;14.43;100.00;98459.94;2582555;28;20054;-82
2023/06/28 05:37:37;;;;;;;5.53;4.93;;;;;;;14.53;100.00;98456.00;2583064;28;20085;-83
2023/06/28 05:38:53;;;;;;;4.82;4.28;;;;;;;14.49;100.00;98450.94;2585098;28;20469;-83
2023/06/28 05:40:09;;;;;;;5.70;4.45;;;;;;;14.63;100.00;98456.44;2583117;28;20139;-83
2023/06/28 05:41:25;;;;;;;6.40;4.05;;;;;;;14.81;100.00;98453.94;2583158;28;20108;-83
2023/06/28 05:42:40;;;;;;;6.88;4.15;;;;;;;14.84;100.00;98453.78;2581936;28;20057;-82
2023/06/28 05:43:56;;;;;;;5.10;3.75;;;;;;;14.80;100.00;98460.97;2581883;28;20085;-82
2023/06/28 05:45:11;;;;;;;4.30;3.85;;;;;;;15.10;100.00;98459.66;2583064;28;20421;-82
2023/06/28 05:46:27;;;;;;;5.70;3.97;;;;;;;15.18;100.00;98454.88;2585135;28;20608;-82
2023/06/28 05:47:43;;;;;;;6.30;4.38;;;;;;;15.13;100.00;98458.66;2582181;28;20060;-82
2023/06/28 05:49:00;;;;;;;5.55;3.78;;;;;;;14.99;100.00;98461.91;2583801;28;20122;-81
2023/06/28 05:50:17;;;;;;;5.70;3.50;;;;;;;15.06;100.00;98456.28;2582790;28;20049;-83
2023/06/28 05:51:34;;;;;;;5.15;3.50;;;;;;;15.10;100.00;98459.66;2584615;28;20058;-81
2023/06/28 05:52:50;;;;;;;4.18;3.70;;;;;;;15.58;100.00;98467.13;2582747;28;20056;-81